createdAt,value
2023-01-25T00:01:54.645Z,5.13
2023-01-25T00:03:59.902Z,4.80
2023-01-25T00:06:04.133Z,6.32
2023-01-25T00:08:10.033Z,5.25
2023-01-25T00:10:15.505Z,4.47
2023-01-25T00:12:21.206Z,4.60
2023-01-25T00:14:26.864Z,4.03
2023-01-25T00:16:31.274Z,3.67
2023-01-25T00:18:39.379Z,5.22
2023-01-25T00:20:43.674Z,4.80
2023-01-25T00:22:48.668Z,4.60
2023-01-25T00:26:59.287Z,4.15
2023-01-25T00:29:07.277Z,4.47
2023-01-25T00:31:18.463Z,3.78
2023-01-25T00:33:45.591Z,6.68
2023-01-25T00:35:51.135Z,4.45
2023-01-25T00:38:00.650Z,3.28
2023-01-25T00:40:08.442Z,4.38
2023-01-25T00:42:18.811Z,4.55
2023-01-25T00:44:23.070Z,4.00
2023-01-25T00:46:27.444Z,3.42
2023-01-25T00:48:32.477Z,4.20
2023-01-25T00:50:41.072Z,4.63
2023-01-25T00:52:45.491Z,3.70
2023-01-25T00:54:50.050Z,4.55
2023-01-25T00:56:56.803Z,6.00
2023-01-25T00:59:01.213Z,4.65
2023-01-25T01:01:06.590Z,4.45
2023-01-25T01:03:12.190Z,5.88
2023-01-25T01:05:16.995Z,5.18
2023-01-25T01:07:22.668Z,5.03
2023-01-25T01:09:27.302Z,6.38
2023-01-25T01:11:32.657Z,5.32
2023-01-25T01:13:37.673Z,5.80
2023-01-25T01:15:41.979Z,6.00
2023-01-25T01:17:47.540Z,6.55
2023-01-25T01:20:02.435Z,6.05
2023-01-25T01:22:07.810Z,5.55
2023-01-25T01:24:27.042Z,6.18
2023-01-25T01:26:35.393Z,5.70
2023-01-25T01:28:40.366Z,5.60
2023-01-25T01:32:56.708Z,6.07
2023-01-25T01:35:04.868Z,6.43
2023-01-25T01:37:10.275Z,6.45
2023-01-25T01:39:16.661Z,6.35
2023-01-25T01:41:22.436Z,6.65
2023-01-25T01:43:27.653Z,7.72
2023-01-25T01:45:56.385Z,9.88
2023-01-25T01:48:16.738Z,8.45
2023-01-25T01:50:23.051Z,9.25
2023-01-25T01:52:33.085Z,8.48
2023-01-25T01:54:45.545Z,8.57
2023-01-25T01:56:56.555Z,8.50
2023-01-25T01:59:01.939Z,11.82
2023-01-25T02:01:06.535Z,9.32
2023-01-25T02:03:13.028Z,9.95
2023-01-25T02:05:22.037Z,9.10
2023-01-25T02:07:35.136Z,7.68
2023-01-25T02:09:43.755Z,7.47
2023-01-25T02:11:49.608Z,7.90
2023-01-25T02:14:01.612Z,5.82
2023-01-25T02:16:08.384Z,6.38
2023-01-25T02:18:17.570Z,4.60
2023-01-25T02:20:34.360Z,5.03
2023-01-25T02:22:48.104Z,5.88
2023-01-25T02:25:06.579Z,4.63
2023-01-25T02:27:12.073Z,5.18
2023-01-25T02:29:19.748Z,4.90
2023-01-25T02:31:29.090Z,4.53
2023-01-25T02:33:33.215Z,4.78
2023-01-25T02:35:44.267Z,6.03
2023-01-25T02:37:51.376Z,5.82
2023-01-25T02:39:58.261Z,4.25
2023-01-25T02:42:10.042Z,5.38
2023-01-25T02:44:19.974Z,4.13
2023-01-25T02:46:28.539Z,4.43
2023-01-25T02:48:34.034Z,5.03
2023-01-25T02:50:37.939Z,5.93
2023-01-25T02:52:42.869Z,4.78
2023-01-25T02:54:47.124Z,4.97
2023-01-25T02:56:51.895Z,5.97
2023-01-25T02:59:06.868Z,4.50
2023-01-25T03:01:14.105Z,6.18
2023-01-25T03:03:18.883Z,6.25
2023-01-25T03:07:29.601Z,5.00
2023-01-25T03:09:33.760Z,5.90
2023-01-25T03:11:38.177Z,4.32
2023-01-25T03:13:42.548Z,5.50
2023-01-25T03:15:48.523Z,5.90
2023-01-25T03:17:53.248Z,4.90
2023-01-25T03:20:00.909Z,4.78
2023-01-25T03:22:08.612Z,6.10
2023-01-25T03:24:14.915Z,3.80
2023-01-25T03:26:26.062Z,3.75
2023-01-25T03:28:45.503Z,4.40
2023-01-25T03:30:55.674Z,3.80
2023-01-25T03:32:59.824Z,3.30
2023-01-25T03:35:06.104Z,4.55
2023-01-25T03:37:10.976Z,3.38
2023-01-25T03:39:17.335Z,3.53
2023-01-25T03:41:21.474Z,3.47
2023-01-25T03:43:27.400Z,2.90
2023-01-25T03:45:33.660Z,3.97
2023-01-25T03:49:46.060Z,4.80
2023-01-25T03:51:54.120Z,3.58
2023-01-25T03:54:05.520Z,3.65
2023-01-25T03:56:20.655Z,4.30
2023-01-25T03:58:35.902Z,4.63
2023-01-25T04:00:39.856Z,5.43
2023-01-25T04:02:44.689Z,5.93
2023-01-25T04:04:52.190Z,4.03
2023-01-25T04:06:57.646Z,4.70
2023-01-25T04:09:01.568Z,4.38
2023-01-25T04:11:11.599Z,3.83
2023-01-25T04:13:15.309Z,4.60
2023-01-25T04:15:18.845Z,4.05
2023-01-25T04:17:22.751Z,3.72
2023-01-25T04:19:35.440Z,4.53
2023-01-25T04:21:40.550Z,3.08
2023-01-25T04:23:44.208Z,4.38
2023-01-25T04:25:54.301Z,4.75
2023-01-25T04:27:57.694Z,4.20
2023-01-25T04:30:00.984Z,3.50
2023-01-25T04:32:04.918Z,4.10
2023-01-25T04:36:14.511Z,5.20
2023-01-25T04:38:20.065Z,5.85
2023-01-25T04:40:23.690Z,6.07
2023-01-25T04:42:27.467Z,6.07
2023-01-25T04:44:33.005Z,6.05
2023-01-25T04:46:36.652Z,4.85
2023-01-25T04:48:40.922Z,6.43
2023-01-25T04:50:45.446Z,6.07
2023-01-25T04:54:54.347Z,6.38
2023-01-25T04:56:59.027Z,6.32
2023-01-25T04:59:03.625Z,5.03
2023-01-25T05:01:08.928Z,3.47
2023-01-25T05:03:13.102Z,4.07
2023-01-25T05:05:18.826Z,4.80
2023-01-25T05:07:25.273Z,4.20
2023-01-25T05:09:31.159Z,5.80
2023-01-25T05:11:35.401Z,4.35
2023-01-25T05:13:49.491Z,6.30
2023-01-25T05:15:58.119Z,6.57
2023-01-25T05:18:01.673Z,4.85
2023-01-25T05:20:05.905Z,5.65
2023-01-25T05:22:11.604Z,7.18
2023-01-25T05:24:20.660Z,5.38
2023-01-25T05:26:43.766Z,5.78
2023-01-25T05:28:48.170Z,6.03
2023-01-25T05:31:00.208Z,6.80
2023-01-25T05:33:03.796Z,6.38
2023-01-25T05:35:08.320Z,6.97
2023-01-25T05:37:14.839Z,5.43
2023-01-25T05:39:20.928Z,6.38
2023-01-25T05:41:28.982Z,5.15
2023-01-25T05:43:33.552Z,6.00
2023-01-25T05:45:41.076Z,5.50
2023-01-25T05:47:46.285Z,5.15
2023-01-25T05:49:50.037Z,6.60
2023-01-25T05:52:05.199Z,5.55
2023-01-25T05:54:11.387Z,5.13
2023-01-25T05:56:15.197Z,4.55
2023-01-25T05:58:20.353Z,5.18
2023-01-25T06:00:24.732Z,7.65
2023-01-25T06:02:28.277Z,6.03
2023-01-25T06:04:31.927Z,4.85
2023-01-25T06:06:35.554Z,5.72
2023-01-25T06:08:40.193Z,4.57
2023-01-25T06:10:43.874Z,4.70
2023-01-25T06:12:48.340Z,3.92
2023-01-25T06:14:54.454Z,4.55
2023-01-25T06:16:58.526Z,3.38
2023-01-25T06:19:01.864Z,2.85
2023-01-25T06:21:31.171Z,3.67
2023-01-25T06:23:35.081Z,3.58
2023-01-25T06:25:38.482Z,1.98
2023-01-25T06:27:42.148Z,3.20
2023-01-25T06:29:46.440Z,2.42
2023-01-25T06:31:51.331Z,2.58
2023-01-25T06:33:55.316Z,3.28
2023-01-25T06:36:03.326Z,3.08
2023-01-25T06:38:08.535Z,3.10
2023-01-25T06:40:13.586Z,3.22
2023-01-25T06:42:17.634Z,3.20
2023-01-25T06:44:25.293Z,3.97
2023-01-25T06:46:30.368Z,3.53
2023-01-25T06:50:39.775Z,3.45
2023-01-25T06:52:44.082Z,2.95
2023-01-25T06:54:48.282Z,2.90
2023-01-25T06:56:52.367Z,3.45
2023-01-25T06:58:56.820Z,2.75
2023-01-25T07:01:03.524Z,2.70
2023-01-25T07:03:07.759Z,3.78
2023-01-25T07:05:13.343Z,4.60
2023-01-25T07:07:17.510Z,4.18
2023-01-25T07:09:24.976Z,2.30
2023-01-25T07:11:31.647Z,2.45
2023-01-25T07:13:37.185Z,3.20
2023-01-25T07:15:41.861Z,2.53
2023-01-25T07:17:46.067Z,2.58
2023-01-25T07:19:51.984Z,2.83
2023-01-25T07:22:00.361Z,7.97
2023-01-25T07:24:06.997Z,2.20
2023-01-25T07:26:19.980Z,3.13
2023-01-25T07:28:23.911Z,2.58
2023-01-25T07:30:30.114Z,3.53
2023-01-25T07:32:36.166Z,2.80
2023-01-25T07:34:40.334Z,3.42
2023-01-25T07:36:46.651Z,2.95
2023-01-25T07:38:55.355Z,2.47
2023-01-25T07:40:59.224Z,4.38
2023-01-25T07:43:03.489Z,4.72
2023-01-25T07:45:09.118Z,2.88
2023-01-25T07:47:13.568Z,4.43
2023-01-25T07:49:17.646Z,3.33
2023-01-25T07:51:27.594Z,2.55
2023-01-25T07:53:31.612Z,2.85
2023-01-25T07:55:37.488Z,3.47
2023-01-25T07:57:41.569Z,2.33
2023-01-25T07:59:46.038Z,2.55
2023-01-25T08:01:50.255Z,2.88
2023-01-25T08:03:56.767Z,4.65
2023-01-25T08:06:00.983Z,2.35
2023-01-25T08:08:05.999Z,4.15
2023-01-25T08:12:17.625Z,4.65
2023-01-25T08:14:22.137Z,2.95
2023-01-25T08:16:28.876Z,3.90
2023-01-25T08:18:35.888Z,2.92
2023-01-25T08:20:44.371Z,2.70
2023-01-25T08:22:50.124Z,3.00
2023-01-25T08:24:54.113Z,4.50
2023-01-25T08:26:58.643Z,3.42
2023-01-25T08:29:04.873Z,2.05
2023-01-25T08:31:12.785Z,3.58
2023-01-25T08:33:16.303Z,2.58
2023-01-25T08:35:20.026Z,5.72
2023-01-25T08:37:23.890Z,2.60
2023-01-25T08:39:28.112Z,2.15
2023-01-25T08:41:34.601Z,2.35
2023-01-25T08:43:39.154Z,3.22
2023-01-25T08:45:46.134Z,3.45
2023-01-25T08:47:50.057Z,3.65
2023-01-25T08:49:55.896Z,3.15
2023-01-25T08:52:00.044Z,3.53
2023-01-25T08:54:05.556Z,3.80
2023-01-25T08:56:12.391Z,3.30
2023-01-25T08:58:19.988Z,4.00
2023-01-25T09:00:24.918Z,2.58
2023-01-25T09:04:36.784Z,3.15
2023-01-25T09:06:41.135Z,5.38
2023-01-25T09:08:45.044Z,4.65
2023-01-25T09:10:48.737Z,4.13
2023-01-25T09:12:52.844Z,3.85
2023-01-25T09:14:56.764Z,3.00
2023-01-25T09:17:00.772Z,3.85
2023-01-25T09:19:07.328Z,3.88
2023-01-25T09:21:12.200Z,3.50
2023-01-25T09:25:19.645Z,6.75
2023-01-25T09:27:23.751Z,5.65
2023-01-25T09:29:28.139Z,4.75
2023-01-25T09:31:32.203Z,3.95
2023-01-25T09:33:37.581Z,5.43
2023-01-25T09:35:49.660Z,2.42
2023-01-25T09:37:53.754Z,3.95
2023-01-25T09:39:57.870Z,2.17
2023-01-25T09:42:33.196Z,5.80
2023-01-25T09:44:56.214Z,4.20
2023-01-25T09:47:02.185Z,3.40
2023-01-25T09:49:21.879Z,3.97
2023-01-25T09:51:31.637Z,4.05
2023-01-25T09:53:38.993Z,4.93
2023-01-25T09:55:44.280Z,4.40
2023-01-25T09:57:51.463Z,7.70
2023-01-25T09:59:56.354Z,5.93
2023-01-25T10:02:04.662Z,4.32
2023-01-25T10:04:15.278Z,3.53
2023-01-25T10:06:23.723Z,7.47
2023-01-25T10:08:35.409Z,2.80
2023-01-25T10:10:42.345Z,3.25
2023-01-25T10:12:46.770Z,3.88
2023-01-25T10:14:54.181Z,3.67
2023-01-25T10:17:08.335Z,3.38
2023-01-25T10:19:20.416Z,3.70
2023-01-25T10:21:31.252Z,2.83
2023-01-25T10:24:17.844Z,2.42
2023-01-25T10:26:27.252Z,3.58
2023-01-25T10:28:43.712Z,3.58
2023-01-25T10:30:56.960Z,3.45
2023-01-25T10:33:04.255Z,3.63
2023-01-25T10:35:33.347Z,1.90
2023-01-25T10:37:39.681Z,3.25
2023-01-25T10:41:57.752Z,4.40
2023-01-25T10:44:15.772Z,4.03
2023-01-25T10:46:24.574Z,4.30
2023-01-25T10:48:33.351Z,3.13
2023-01-25T10:51:01.927Z,4.82
2023-01-25T10:53:06.049Z,3.55
2023-01-25T10:55:17.053Z,2.92
2023-01-25T10:57:24.488Z,3.97
2023-01-25T10:59:30.151Z,4.68
2023-01-25T11:01:36.424Z,3.92
2023-01-25T11:03:42.543Z,4.13
2023-01-25T11:05:56.062Z,5.45
2023-01-25T11:08:17.920Z,5.05
2023-01-25T11:10:34.734Z,5.53
2023-01-25T11:12:39.139Z,3.28
2023-01-25T11:14:43.252Z,5.07
2023-01-25T11:16:49.338Z,5.07
2023-01-25T11:18:55.395Z,3.95
2023-01-25T11:21:15.162Z,4.22
2023-01-25T11:23:27.488Z,4.60
2023-01-25T11:25:35.607Z,4.47
2023-01-25T11:27:39.642Z,3.58
2023-01-25T11:29:43.717Z,3.80
2023-01-25T11:31:49.795Z,3.95
2023-01-25T11:33:54.128Z,5.68
2023-01-25T11:36:11.834Z,6.63
2023-01-25T11:38:18.750Z,4.05
2023-01-25T11:40:31.951Z,6.05
2023-01-25T11:42:51.038Z,4.80
2023-01-25T11:45:30.046Z,5.80
2023-01-25T11:47:46.147Z,4.30
2023-01-25T11:50:01.006Z,2.97
2023-01-25T11:52:17.305Z,4.43
2023-01-25T11:54:51.405Z,5.03
2023-01-25T11:57:01.232Z,5.50
2023-01-25T11:59:27.499Z,5.55
2023-01-25T12:01:40.480Z,8.27
2023-01-25T12:04:15.700Z,3.95
2023-01-25T12:06:29.499Z,4.70
2023-01-25T12:08:52.170Z,6.88
2023-01-25T12:11:03.757Z,2.47
2023-01-25T12:13:17.704Z,3.88
2023-01-25T12:16:00.254Z,5.22
2023-01-25T12:18:31.784Z,10.05
2023-01-25T12:20:59.277Z,5.32
2023-01-25T12:23:28.264Z,4.65
2023-01-25T12:25:39.991Z,4.90
2023-01-25T12:27:58.650Z,5.70
2023-01-25T12:30:13.719Z,5.72
2023-01-25T12:32:22.933Z,9.02
2023-01-25T12:34:37.128Z,13.43
2023-01-25T12:36:45.272Z,9.52
2023-01-25T12:38:56.999Z,7.63
2023-01-25T12:41:04.090Z,7.18
2023-01-25T12:43:17.526Z,7.65
2023-01-25T12:45:26.273Z,11.30
2023-01-25T12:47:36.632Z,7.03
2023-01-25T12:49:47.505Z,4.20
2023-01-25T12:51:53.465Z,4.07
2023-01-25T12:53:59.928Z,8.77
2023-01-25T12:56:06.422Z,5.72
2023-01-25T12:58:26.507Z,9.95
2023-01-25T13:00:45.984Z,7.32
2023-01-25T13:03:05.986Z,6.35
2023-01-25T13:05:27.718Z,11.07
2023-01-25T13:07:39.234Z,12.00
2023-01-25T13:09:53.553Z,5.85
2023-01-25T13:11:57.794Z,8.25
2023-01-25T13:14:33.430Z,7.97
2023-01-25T13:16:44.210Z,11.02
2023-01-25T13:18:48.570Z,13.35
2023-01-25T13:20:55.663Z,6.45
2023-01-25T13:23:01.109Z,13.60
2023-01-25T13:25:21.274Z,16.67
2023-01-25T13:27:30.001Z,5.95
2023-01-25T13:29:59.276Z,11.13
2023-01-25T13:32:05.727Z,6.30
2023-01-25T13:34:11.727Z,6.47
2023-01-25T13:36:47.846Z,9.93
2023-01-25T13:41:19.964Z,5.75
2023-01-25T13:43:24.020Z,7.93
2023-01-25T13:45:29.131Z,8.63
2023-01-25T13:47:38.319Z,9.02
2023-01-25T13:49:46.320Z,9.65
2023-01-25T13:51:52.013Z,5.95
2023-01-25T13:54:00.908Z,10.82
2023-01-25T13:56:05.795Z,15.25
2023-01-25T13:58:18.231Z,6.75
2023-01-25T14:00:23.063Z,8.85
2023-01-25T14:02:27.856Z,10.73
2023-01-25T14:04:32.185Z,8.52
2023-01-25T14:06:39.430Z,8.27
2023-01-25T14:08:45.718Z,8.23
2023-01-25T14:10:51.687Z,8.80
2023-01-25T14:13:01.237Z,8.07
2023-01-25T14:15:23.768Z,7.97
2023-01-25T14:17:28.203Z,6.03
2023-01-25T14:19:33.898Z,7.82
2023-01-25T14:21:39.930Z,5.57
2023-01-25T14:23:46.787Z,3.47
2023-01-25T14:25:51.480Z,5.05
2023-01-25T14:27:57.421Z,6.82
2023-01-25T14:30:02.058Z,5.53
2023-01-25T14:32:07.289Z,5.10
2023-01-25T14:34:19.828Z,6.95
2023-01-25T14:36:25.607Z,3.70
2023-01-25T14:38:33.162Z,4.38
2023-01-25T14:40:39.016Z,4.03
2023-01-25T14:42:43.735Z,6.90
2023-01-25T14:44:48.954Z,6.38
2023-01-25T14:49:26.750Z,7.07
2023-01-25T14:51:32.508Z,8.02
2023-01-25T14:53:41.744Z,6.15
2023-01-25T14:55:48.549Z,7.97
2023-01-25T14:57:53.443Z,7.43
2023-01-25T14:59:58.884Z,4.93
2023-01-25T15:02:06.733Z,9.00
2023-01-25T15:04:15.158Z,5.00
2023-01-25T15:06:19.852Z,4.60
2023-01-25T15:08:31.003Z,4.10
2023-01-25T15:13:04.100Z,5.40
2023-01-25T15:15:20.843Z,7.38
2023-01-25T15:17:56.493Z,9.05
2023-01-25T15:20:02.067Z,6.43
2023-01-25T15:22:09.841Z,7.63
2023-01-25T15:24:15.099Z,9.70
2023-01-25T15:26:24.501Z,6.38
2023-01-25T15:28:34.740Z,10.90
2023-01-25T15:30:39.824Z,5.68
2023-01-25T15:32:45.624Z,11.77
2023-01-25T15:34:50.599Z,6.93
2023-01-25T15:36:58.287Z,6.03
2023-01-25T15:39:06.696Z,5.97
2023-01-25T15:41:12.306Z,7.20
2023-01-25T15:43:17.643Z,9.45
2023-01-25T15:45:23.341Z,11.93
2023-01-25T15:47:28.441Z,11.00
2023-01-25T15:49:33.635Z,7.97
2023-01-25T15:51:37.939Z,12.52
2023-01-25T15:53:42.804Z,8.20
2023-01-25T15:55:50.563Z,8.10
2023-01-25T15:57:58.455Z,8.45
2023-01-25T16:00:03.629Z,7.80
2023-01-25T16:02:15.284Z,7.13
2023-01-25T16:04:20.128Z,11.32
2023-01-25T16:06:37.578Z,8.05
2023-01-25T16:10:47.873Z,9.05
2023-01-25T16:12:53.560Z,9.50
2023-01-25T16:14:58.068Z,13.68
2023-01-25T16:17:06.060Z,37.75
2023-01-25T16:19:14.852Z,14.18
2023-01-25T16:21:19.515Z,18.55
2023-01-25T16:23:24.187Z,14.35
2023-01-25T16:25:29.018Z,10.73
2023-01-25T16:27:36.090Z,7.05
2023-01-25T16:29:40.422Z,15.70
2023-01-25T16:31:45.009Z,15.82
2023-01-25T16:33:50.121Z,14.45
2023-01-25T16:36:06.088Z,7.75
2023-01-25T16:38:14.539Z,15.73
2023-01-25T16:40:26.004Z,13.50
2023-01-25T16:42:31.198Z,7.88
2023-01-25T16:44:35.423Z,14.65
2023-01-25T16:46:41.969Z,14.45
2023-01-25T16:48:47.522Z,10.40
2023-01-25T16:50:52.099Z,9.50
2023-01-25T16:53:00.622Z,9.32
2023-01-25T16:55:06.598Z,17.02
2023-01-25T16:57:20.282Z,15.80
2023-01-25T16:59:26.400Z,9.13
2023-01-25T17:01:32.061Z,11.38
2023-01-25T17:03:36.758Z,16.80
2023-01-25T17:05:40.938Z,19.42
2023-01-25T17:07:51.012Z,13.60
2023-01-25T17:09:57.311Z,11.35
2023-01-25T17:12:01.790Z,12.77
2023-01-25T17:14:07.444Z,17.25
2023-01-25T17:16:12.554Z,16.67
2023-01-25T17:18:16.722Z,19.27
2023-01-25T17:20:23.685Z,19.45
2023-01-25T17:22:29.514Z,29.45
2023-01-25T17:24:36.279Z,21.17
2023-01-25T17:26:42.570Z,28.38
2023-01-25T17:28:47.324Z,13.45
2023-01-25T17:30:55.289Z,18.38
2023-01-25T17:32:59.898Z,19.92
2023-01-25T17:35:05.064Z,16.42
2023-01-25T17:37:09.986Z,13.95
2023-01-25T17:39:16.428Z,18.48
2023-01-25T17:41:21.152Z,33.78
2023-01-25T17:43:28.394Z,17.90
2023-01-25T17:45:38.694Z,18.05
2023-01-25T17:47:43.915Z,16.52
2023-01-25T17:51:52.642Z,17.42
2023-01-25T17:53:58.955Z,21.20
2023-01-25T17:56:06.131Z,14.75
2023-01-25T17:58:10.563Z,16.50
2023-01-25T18:00:18.325Z,23.27
2023-01-25T18:02:23.279Z,28.10
2023-01-25T18:04:27.851Z,17.65
2023-01-25T18:06:34.125Z,28.23
2023-01-25T18:08:42.233Z,20.45
2023-01-25T18:10:46.592Z,30.40
2023-01-25T18:13:03.812Z,22.30
2023-01-25T18:15:16.229Z,25.92
2023-01-25T18:17:22.078Z,39.10
2023-01-25T18:19:26.353Z,46.08
2023-01-25T18:21:33.363Z,26.90
2023-01-25T18:23:38.574Z,25.75
2023-01-25T18:25:43.790Z,35.78
2023-01-25T18:27:50.760Z,23.30
2023-01-25T18:30:01.174Z,18.58
2023-01-25T18:32:06.752Z,21.92
2023-01-25T18:34:14.325Z,24.85
2023-01-25T18:36:20.893Z,18.50
2023-01-25T18:38:26.065Z,28.75
2023-01-25T18:42:35.877Z,108.32
2023-01-25T18:44:41.188Z,46.25
2023-01-25T18:46:48.530Z,87.32
2023-01-25T18:48:53.299Z,47.13
2023-01-25T18:51:00.884Z,30.63
2023-01-25T18:53:05.811Z,31.85
2023-01-25T18:55:12.675Z,28.85
2023-01-25T18:57:18.181Z,40.95
2023-01-25T18:59:23.401Z,46.38
2023-01-25T19:01:28.227Z,35.22
2023-01-25T19:03:32.859Z,28.08
2023-01-25T19:05:39.733Z,18.35
2023-01-25T19:07:46.411Z,17.73
2023-01-25T19:09:50.910Z,19.52
2023-01-25T19:11:56.102Z,17.58
2023-01-25T19:14:00.627Z,24.05
2023-01-25T19:16:06.763Z,21.38
2023-01-25T19:18:11.413Z,18.63
2023-01-25T19:20:16.616Z,21.90
2023-01-25T19:22:21.403Z,34.25
2023-01-25T19:24:27.287Z,34.60
2023-01-25T19:26:32.295Z,33.00
2023-01-25T19:28:37.226Z,20.90
2023-01-25T19:30:40.920Z,17.63
2023-01-25T19:32:45.503Z,25.35
2023-01-25T19:34:49.802Z,15.13
2023-01-25T19:36:54.294Z,20.65
2023-01-25T19:38:59.664Z,20.73
2023-01-25T19:41:10.831Z,16.08
2023-01-25T19:43:15.656Z,19.38
2023-01-25T19:45:20.137Z,27.77
2023-01-25T19:47:24.960Z,22.73
2023-01-25T19:49:29.322Z,17.70
2023-01-25T19:51:35.729Z,19.90
2023-01-25T19:53:40.658Z,25.58
2023-01-25T19:55:45.167Z,22.45
2023-01-25T19:57:51.255Z,26.30
2023-01-25T19:59:55.901Z,21.85
2023-01-25T20:02:01.105Z,22.15
2023-01-25T20:04:08.361Z,23.17
2023-01-25T20:06:14.557Z,24.08
2023-01-25T20:08:19.195Z,25.63
2023-01-25T20:10:23.857Z,16.17
2023-01-25T20:12:28.875Z,21.67
2023-01-25T20:14:34.166Z,15.43
2023-01-25T20:16:39.484Z,23.13
2023-01-25T20:18:44.525Z,19.95
2023-01-25T20:20:57.677Z,26.50
2023-01-25T20:23:02.419Z,27.05
2023-01-25T20:25:08.465Z,19.38
2023-01-25T20:27:13.305Z,26.27
2023-01-25T20:29:18.159Z,20.10
2023-01-25T20:31:26.231Z,18.15
2023-01-25T20:33:31.682Z,27.55
2023-01-25T20:35:36.322Z,14.65
2023-01-25T20:37:41.025Z,21.83
2023-01-25T20:39:45.492Z,19.42
2023-01-25T20:41:52.053Z,21.10
2023-01-25T20:44:00.826Z,27.17
2023-01-25T20:46:05.875Z,43.92
2023-01-25T20:48:11.968Z,17.90
2023-01-25T20:50:16.637Z,21.45
2023-01-25T20:52:21.770Z,16.77
2023-01-25T20:54:27.016Z,18.45
2023-01-25T20:56:33.336Z,14.85
2023-01-25T20:58:37.749Z,17.92
2023-01-25T21:00:43.205Z,26.02
2023-01-25T21:02:47.906Z,36.17
2023-01-25T21:04:53.689Z,32.20
2023-01-25T21:06:58.438Z,31.75
2023-01-25T21:09:03.248Z,19.38
2023-01-25T21:11:08.830Z,21.60
2023-01-25T21:13:13.815Z,17.83
2023-01-25T21:15:18.453Z,22.58
2023-01-25T21:17:23.157Z,12.73
2023-01-25T21:19:28.058Z,13.85
2023-01-25T21:21:35.127Z,17.23
2023-01-25T21:23:41.182Z,23.85
2023-01-25T21:25:45.415Z,21.23
2023-01-25T21:27:50.888Z,21.55
2023-01-25T21:29:55.955Z,24.67
2023-01-25T21:32:00.167Z,22.65
2023-01-25T21:34:06.355Z,17.60
2023-01-25T21:36:12.271Z,12.48
2023-01-25T21:38:19.252Z,14.85
2023-01-25T21:40:23.928Z,15.18
2023-01-25T21:42:30.001Z,18.33
2023-01-25T21:44:53.264Z,21.90
2023-01-25T21:47:28.478Z,25.42
2023-01-25T21:49:41.132Z,22.92
2023-01-25T21:51:49.857Z,20.10
2023-01-25T21:53:56.170Z,28.35
2023-01-25T21:56:01.310Z,21.10
2023-01-25T21:58:07.162Z,29.50
2023-01-25T22:00:14.463Z,23.70
2023-01-25T22:02:18.719Z,21.25
2023-01-25T22:04:26.169Z,14.73
2023-01-25T22:06:34.605Z,22.17
2023-01-25T22:08:39.134Z,19.17
2023-01-25T22:10:46.161Z,14.65
2023-01-25T22:12:51.878Z,13.00
2023-01-25T22:14:55.920Z,17.75
2023-01-25T22:17:04.208Z,11.23
2023-01-25T22:19:11.912Z,15.95
2023-01-25T22:21:19.287Z,17.38
2023-01-25T22:23:24.703Z,18.42
2023-01-25T22:25:31.614Z,19.17
2023-01-25T22:27:52.754Z,17.23
2023-01-25T22:29:57.362Z,17.77
2023-01-25T22:32:02.476Z,15.80
2023-01-25T22:34:07.068Z,24.80
2023-01-25T22:36:12.694Z,13.18
2023-01-25T22:38:17.100Z,20.25
2023-01-25T22:40:23.548Z,13.93
2023-01-25T22:42:28.751Z,12.50
2023-01-25T22:44:35.986Z,20.60
2023-01-25T22:46:40.103Z,15.63
2023-01-25T22:48:44.519Z,20.48
2023-01-25T22:50:48.444Z,18.13
2023-01-25T22:52:52.956Z,13.10
2023-01-25T22:54:57.480Z,20.45
2023-01-25T22:57:01.566Z,22.10
2023-01-25T22:59:06.843Z,16.92
2023-01-25T23:03:17.701Z,18.70
2023-01-25T23:05:22.107Z,11.27
2023-01-25T23:07:26.625Z,11.70
2023-01-25T23:09:31.582Z,19.60
2023-01-25T23:11:39.546Z,14.77
2023-01-25T23:14:07.149Z,15.77
2023-01-25T23:16:13.291Z,18.58
2023-01-25T23:18:34.700Z,12.95
2023-01-25T23:20:39.365Z,14.38
2023-01-25T23:22:43.139Z,19.77
2023-01-25T23:24:47.217Z,19.08
2023-01-25T23:26:51.286Z,16.23
2023-01-25T23:28:57.674Z,20.25
2023-01-25T23:31:18.027Z,17.67
2023-01-25T23:33:24.067Z,15.52
2023-01-25T23:35:28.319Z,20.38
2023-01-25T23:37:32.275Z,18.17
2023-01-25T23:39:36.471Z,15.38
2023-01-25T23:41:40.491Z,19.60
2023-01-25T23:43:44.622Z,13.63
2023-01-25T23:45:48.825Z,10.82
2023-01-25T23:47:52.836Z,18.60
2023-01-25T23:49:58.110Z,14.85
2023-01-25T23:52:01.874Z,14.20
2023-01-25T23:54:06.252Z,13.73
2023-01-25T23:56:15.018Z,16.63
2023-01-25T23:58:18.926Z,15.45
